Time;durP1;ratioP1;P1;durP2;ratioP2;P2;SDS_P1;SDS_P2;PMS_P1;PMS_P2;Temp;Humidity;BMP_temperature;BMP_pressure;BME280_temperature;BME280_humidity;BME280_pressure;Samples;Min_cycle;Max_cycle;Signal;HPM_P1;HPM_P2
2022/08/16 14:10:11;;;;;;;12.73;8.43;;;;;;;26.07;66.24;100184.56;2094755;27;20345;-67
2022/08/16 14:11:17;;;;;;;10.68;7.55;;;;;;;26.03;66.77;100171.94;2081803;28;20072;-68
2022/08/16 14:12:32;;;;;;;15.55;8.10;;;;;;;26.02;66.76;100190.44;2075517;28;20135;-67
2022/08/16 14:13:33;;;;;;;15.10;7.72;;;;;;;26.00;67.07;100190.03;2076606;28;20038;-67
2022/08/16 14:14:38;;;;;;;11.98;7.82;;;;;;;26.01;66.94;100202.66;2088550;28;20406;-67
2022/08/16 14:15:44;;;;;;;14.35;8.15;;;;;;;26.02;67.21;100193.19;2096797;28;20085;-65
2022/08/16 14:16:46;;;;;;;13.70;8.10;;;;;;;25.98;66.93;100195.16;2092724;28;20040;-63
2022/08/16 14:17:54;;;;;;;12.25;7.05;;;;;;;25.98;67.44;100197.13;2091068;28;20036;-65
2022/08/16 14:18:58;;;;;;;10.85;7.50;;;;;;;25.95;67.46;100195.94;2081471;28;20037;-66
2022/08/16 14:20:01;;;;;;;22.83;9.80;;;;;;;25.97;67.82;100196.31;2068909;28;20087;-65
2022/08/16 14:21:04;;;;;;;13.38;8.27;;;;;;;25.94;68.09;100197.09;2074789;28;20326;-65
2022/08/16 14:22:09;;;;;;;13.18;8.18;;;;;;;25.93;68.21;100197.50;2091782;28;20040;-65
2022/08/16 14:23:13;;;;;;;11.93;8.05;;;;;;;25.85;69.02;100200.28;2076842;28;20667;-64
2022/08/16 14:24:17;;;;;;;10.50;8.20;;;;;;;25.85;69.33;100194.75;2083165;28;20058;-65
2022/08/16 14:25:27;;;;;;;15.35;8.52;;;;;;;25.89;69.72;100194.75;2086860;28;20037;-65
2022/08/16 14:26:29;;;;;;;17.33;8.52;;;;;;;25.84;69.54;100195.91;2084094;28;20033;-64
2022/08/16 14:27:32;;;;;;;15.43;8.48;;;;;;;25.87;69.96;100188.84;2085486;28;20057;-64
2022/08/16 14:28:34;;;;;;;11.45;8.32;;;;;;;25.86;70.42;100190.81;2094699;28;20037;-65
2022/08/16 14:29:37;;;;;;;17.33;8.32;;;;;;;25.84;70.40;100192.38;2094103;28;20041;-65
2022/08/16 14:30:44;;;;;;;13.70;8.63;;;;;;;25.78;70.50;100193.91;2085848;28;20772;-66
2022/08/16 14:31:49;;;;;;;14.65;8.88;;;;;;;25.73;70.82;100191.56;2102175;28;20040;-65
2022/08/16 14:32:53;;;;;;;17.73;9.15;;;;;;;25.67;72.01;100193.91;2093299;28;20566;-65
2022/08/16 14:33:58;;;;;;;12.02;8.65;;;;;;;25.66;72.46;100198.63;2085650;28;20087;-65
2022/08/16 14:35:06;;;;;;;15.20;9.07;;;;;;;25.69;72.42;100196.25;2076959;28;20033;-65
2022/08/16 14:36:10;;;;;;;14.27;9.18;;;;;;;25.73;72.67;100197.84;2067754;28;20048;-65
2022/08/16 14:37:16;;;;;;;13.30;9.32;;;;;;;25.72;72.88;100190.75;2086092;28;20037;-65
2022/08/16 14:38:21;;;;;;;12.07;9.10;;;;;;;25.68;72.89;100198.22;2085478;28;20060;-65
2022/08/16 14:39:23;;;;;;;17.10;8.73;;;;;;;25.61;72.21;100201.75;2085912;28;20052;-64
2022/08/16 14:40:26;;;;;;;17.80;9.40;;;;;;;25.66;72.96;100198.63;2092798;28;20492;-66
2022/08/16 14:41:28;;;;;;;14.23;8.63;;;;;;;25.68;72.89;100200.97;2076098;28;20042;-65
2022/08/16 14:42:31;;;;;;;15.65;9.20;;;;;;;25.65;72.50;100197.03;2083936;28;20044;-65
2022/08/16 14:43:37;;;;;;;12.25;8.55;;;;;;;25.61;72.57;100200.97;2099581;28;20052;-65
2022/08/16 14:44:43;;;;;;;12.05;8.50;;;;;;;25.60;72.20;100204.91;2079252;28;20045;-65
2022/08/16 14:45:49;;;;;;;14.65;9.10;;;;;;;25.57;72.40;100202.94;2077321;28;20049;-66
2022/08/16 14:46:53;;;;;;;11.95;9.05;;;;;;;25.53;72.44;100202.91;2072097;28;20045;-65
2022/08/16 14:48:06;;;;;;;13.00;9.13;;;;;;;25.57;72.53;100208.44;2071565;28;20126;-66
2022/08/16 14:49:08;;;;;;;12.65;8.73;;;;;;;25.57;71.92;100205.69;2068746;28;20042;-65
2022/08/16 14:50:30;;;;;;;12.85;8.68;;;;;;;25.56;71.61;100210.38;2054910;28;20046;-63
2022/08/16 14:51:31;;;;;;;13.93;8.50;;;;;;;25.60;71.78;100207.66;2051336;28;20049;-64
2022/08/16 14:52:33;;;;;;;14.48;8.27;;;;;;;25.58;71.00;100216.28;2073235;28;20038;-64
2022/08/16 14:53:36;;;;;;;18.38;8.90;;;;;;;25.65;71.19;100218.28;2085925;28;20033;-65
2022/08/16 14:54:42;;;;;;;13.60;8.10;;;;;;;25.74;72.07;100215.16;2087594;28;20075;-63
2022/08/16 14:55:44;;;;;;;14.27;8.30;;;;;;;25.78;71.98;100221.44;2084935;28;20052;-64
2022/08/16 14:56:48;;;;;;;13.90;8.20;;;;;;;25.81;71.72;100224.25;2091192;28;20036;-64
2022/08/16 14:57:53;;;;;;;12.40;8.07;;;;;;;25.81;71.22;100217.94;2096116;28;20480;-64
2022/08/16 14:58:57;;;;;;;13.48;8.55;;;;;;;25.81;70.46;100226.22;2085674;28;20135;-65
2022/08/16 14:59:59;;;;;;;14.90;8.32;;;;;;;25.83;70.54;100218.34;2077055;28;20037;-64
2022/08/16 15:01:03;;;;;;;15.07;7.78;;;;;;;25.85;70.61;100219.56;2076686;28;20037;-63
2022/08/16 15:02:13;;;;;;;14.07;7.78;;;;;;;25.88;70.65;100215.19;2068993;28;20034;-65
2022/08/16 15:03:20;;;;;;;14.82;8.38;;;;;;;25.86;70.55;100220.34;2077465;28;20053;-65
2022/08/16 15:04:26;;;;;;;16.85;8.77;;;;;;;25.83;70.74;100221.91;2076351;28;20457;-64
2022/08/16 15:05:29;;;;;;;15.40;9.32;;;;;;;25.86;71.58;100228.59;2084860;28;20041;-64
2022/08/16 15:06:31;;;;;;;9.82;7.63;;;;;;;25.83;69.85;100230.16;2075537;28;20032;-64
2022/08/16 15:07:36;;;;;;;11.30;7.72;;;;;;;25.86;70.23;100231.34;2068598;28;20418;-64
2022/08/16 15:08:42;;;;;;;13.15;7.30;;;;;;;25.88;70.27;100231.72;2081838;28;20143;-64
2022/08/16 15:09:48;;;;;;;11.07;8.02;;;;;;;25.90;70.55;100229.38;2079719;28;20053;-65
2022/08/16 15:10:57;;;;;;;12.95;7.82;;;;;;;25.92;70.95;100238.06;2085461;28;20445;-64
2022/08/16 15:12:08;;;;;;;12.73;7.90;;;;;;;25.93;70.69;100239.63;2087966;28;20048;-66
2022/08/16 15:13:12;;;;;;;11.68;7.65;;;;;;;25.93;70.89;100245.13;2092521;28;20036;-64
2022/08/16 15:14:14;;;;;;;13.35;7.78;;;;;;;25.94;71.04;100252.19;2069374;28;20038;-65
2022/08/16 15:15:21;;;;;;;13.75;7.90;;;;;;;25.94;70.88;100267.94;2060984;28;20042;-65
2022/08/16 15:16:28;;;;;;;16.50;8.35;;;;;;;25.94;70.59;100276.22;2077584;28;20523;-65
2022/08/16 15:17:36;;;;;;;14.00;9.02;;;;;;;25.91;70.79;100285.25;2067838;28;20033;-66
2022/08/16 15:18:43;;;;;;;15.57;9.00;;;;;;;25.90;71.17;100301.00;2079403;28;20034;-64
2022/08/16 15:19:51;;;;;;;16.65;9.93;;;;;;;25.88;71.07;100309.66;2086691;28;20298;-65
2022/08/16 15:20:54;;;;;;;16.00;10.27;;;;;;;25.88;71.56;100320.69;2065568;28;20025;-63
2022/08/16 15:22:01;;;;;;;13.48;8.68;;;;;;;25.89;71.68;100321.47;2067990;28;20452;-64
2022/08/16 15:23:08;;;;;;;18.58;9.82;;;;;;;25.87;71.21;100332.84;2083674;28;20464;-64
2022/08/16 15:24:13;;;;;;;9.50;7.53;;;;;;;25.86;71.12;100336.78;2084386;28;20053;-66
2022/08/16 18:57:46;;;;;;;21.33;10.18;;;;;;;22.59;92.79;100365.72;2104359;27;20113;-67
2022/08/16 18:58:48;;;;;;;18.80;9.20;;;;;;;22.56;93.00;100366.44;2110377;28;20054;-68
2022/08/16 18:59:51;;;;;;;16.27;8.98;;;;;;;22.55;93.07;100365.66;2102553;28;20419;-70
2022/08/16 19:00:56;;;;;;;17.05;9.65;;;;;;;22.51;93.13;100363.97;2079744;28;20095;-66
2022/08/16 19:02:00;;;;;;;19.20;9.52;;;;;;;22.51;93.16;100358.50;2091426;28;20044;-66
2022/08/16 19:03:11;;;;;;;21.98;10.13;;;;;;;22.53;93.11;100353.47;2090888;28;20043;-67
2022/08/16 19:04:16;;;;;;;31.38;18.45;;;;;;;22.56;93.02;100360.97;2090738;28;20477;-66
2022/08/16 19:05:24;;;;;;;22.60;11.90;;;;;;;22.57;92.53;100357.06;2099404;28;20055;-65
2022/08/16 19:06:28;;;;;;;36.35;17.98;;;;;;;22.51;92.19;100358.50;2099338;28;20048;-67
2022/08/16 19:07:36;;;;;;;20.75;11.02;;;;;;;22.55;92.14;100364.84;2101060;28;20055;-67
2022/08/16 19:08:38;;;;;;;20.67;10.02;;;;;;;22.55;92.13;100364.84;2110613;27;20529;-66
2022/08/16 19:09:46;;;;;;;29.80;10.57;;;;;;;22.54;92.50;100363.25;2091098;28;20028;-66
2022/08/16 19:10:49;;;;;;;19.10;10.40;;;;;;;22.55;92.84;100357.44;2083151;28;20053;-68
2022/08/16 19:11:57;;;;;;;30.13;11.13;;;;;;;22.58;92.90;100348.47;2076116;28;20026;-68
2022/08/16 19:13:05;;;;;;;23.63;10.13;;;;;;;22.61;92.93;100366.16;2077251;28;20046;-66
2022/08/16 19:14:09;;;;;;;;;;;;;;;22.61;93.09;100357.94;2085786;28;20049;-68
2022/08/16 19:15:23;;;;;;;22.38;10.55;;;;;;;22.57;93.27;100351.56;2092207;28;19923;-66
2022/08/16 19:16:25;;;;;;;19.02;10.48;;;;;;;22.53;93.35;100357.00;2084695;28;20037;-67
2022/08/16 19:17:27;;;;;;;21.33;11.45;;;;;;;22.57;93.46;100357.06;2082908;28;20033;-68
2022/08/16 19:18:31;;;;;;;17.35;10.13;;;;;;;22.59;93.41;100349.25;2085849;28;20044;-67
2022/08/16 19:19:35;;;;;;;18.05;10.10;;;;;;;22.64;93.57;100354.47;2085104;28;20131;-68
2022/08/16 19:20:42;;;;;;;21.23;10.40;;;;;;;22.61;93.69;100357.94;2095156;28;20387;-68
2022/08/16 19:21:45;;;;;;;17.42;9.90;;;;;;;22.63;93.78;100363.81;2092757;28;20029;-68
2022/08/16 19:22:54;;;;;;;27.00;9.85;;;;;;;22.63;93.76;100366.56;2081680;28;20400;-68
2022/08/16 19:24:01;;;;;;;26.98;11.48;;;;;;;22.63;93.68;100366.56;2085691;28;20064;-67
2022/08/16 19:25:07;;;;;;;22.50;10.68;;;;;;;22.63;93.65;100372.03;2087273;28;20036;-69
2022/08/16 19:26:19;;;;;;;28.30;11.18;;;;;;;22.67;93.43;100367.44;2085692;28;20048;-68
2022/08/16 19:27:21;;;;;;;30.35;11.40;;;;;;;22.65;93.48;100372.47;2091095;28;20055;-67
2022/08/16 19:28:32;;;;;;;29.65;10.48;;;;;;;22.65;93.38;100372.47;2091283;28;20124;-68
2022/08/16 19:29:40;;;;;;;23.02;10.18;;;;;;;22.63;93.21;100374.78;2089545;28;20374;-66
2022/08/16 19:30:43;;;;;;;27.15;10.05;;;;;;;22.63;92.99;100377.50;2085139;28;20052;-65
2022/08/16 19:31:53;;;;;;;29.83;10.00;;;;;;;22.62;92.44;100378.69;2091273;28;20032;-66
2022/08/16 19:33:00;;;;;;;20.23;10.10;;;;;;;22.60;92.11;100376.31;2099819;28;20036;-66
2022/08/16 19:34:04;;;;;;;29.65;10.18;;;;;;;22.60;92.14;100378.25;2099278;28;20078;-67
2022/08/16 19:35:08;;;;;;;22.15;10.50;;;;;;;22.62;92.12;100379.47;2077324;28;20037;-67
2022/08/16 19:36:09;;;;;;;22.23;10.05;;;;;;;22.63;92.25;100385.72;2078771;28;20101;-67
2022/08/16 19:37:11;;;;;;;30.23;12.60;;;;;;;22.62;92.13;100386.91;2079045;28;20045;-68
2022/08/16 19:38:14;;;;;;;20.30;10.20;;;;;;;22.64;92.32;100390.88;2075406;28;20046;-66
2022/08/16 19:39:19;;;;;;;24.02;10.65;;;;;;;22.66;92.15;100385.00;2074148;28;20818;-67
2022/08/16 19:40:24;;;;;;;25.88;10.60;;;;;;;22.64;92.16;100384.59;2082104;28;20489;-67
2022/08/16 19:41:33;;;;;;;20.08;10.13;;;;;;;22.65;92.42;100388.91;2077186;28;20045;-67
2022/08/16 19:42:38;;;;;;;25.48;10.15;;;;;;;22.63;92.60;100388.47;2076957;28;20572;-68
2022/08/16 19:43:45;;;;;;;19.63;10.05;;;;;;;22.62;92.97;100390.44;2085663;28;20067;-66
2022/08/16 19:44:50;;;;;;;26.17;11.30;;;;;;;22.58;93.17;100386.84;2082093;28;20044;-67
2022/08/16 19:45:53;;;;;;;25.52;12.23;;;;;;;22.63;93.53;100399.44;2071433;28;20684;-68
2022/08/16 19:46:56;;;;;;;29.23;11.90;;;;;;;22.58;93.35;100392.31;2087976;28;20047;-67
2022/08/16 19:48:03;;;;;;;16.98;9.95;;;;;;;22.61;93.25;100396.28;2090127;28;20048;-67
2022/08/16 19:49:10;;;;;;;20.38;10.02;;;;;;;22.59;93.04;100393.91;2085242;28;20041;-66
2022/08/16 19:50:14;;;;;;;27.45;12.88;;;;;;;22.63;92.96;100392.00;2087728;28;20049;-67
2022/08/16 19:51:24;;;;;;;23.35;10.80;;;;;;;22.61;93.02;100397.06;2081948;28;20041;-67
2022/08/16 19:52:35;;;;;;;21.38;10.57;;;;;;;22.61;92.93;100408.03;2066195;28;20037;-66
2022/08/16 19:53:41;;;;;;;24.63;10.35;;;;;;;22.59;92.77;100404.84;2078028;28;20045;-67
2022/08/16 19:54:44;;;;;;;26.65;10.43;;;;;;;22.64;92.82;100403.78;2084580;28;20117;-67
2022/08/16 19:55:51;;;;;;;24.27;10.07;;;;;;;22.64;92.31;100406.53;2085253;28;20052;-67
2022/08/16 19:57:04;;;;;;;19.13;8.98;;;;;;;22.63;91.60;100411.19;2092247;28;20049;-70
2022/08/16 19:58:05;;;;;;;26.95;10.85;;;;;;;22.61;90.53;100415.47;2086225;28;20693;-67
2022/08/16 19:59:08;;;;;;;23.80;10.63;;;;;;;22.60;91.01;100411.13;2084087;28;20740;-67
2022/08/16 20:00:14;;;;;;;18.35;9.50;;;;;;;22.55;90.35;100414.97;2084812;28;20041;-68
2022/08/16 20:01:16;;;;;;;20.50;9.52;;;;;;;22.49;89.02;100415.63;2100939;28;20054;-67
2022/08/16 20:02:23;;;;;;;20.55;9.68;;;;;;;22.49;88.84;100415.63;2104844;28;20048;-66
2022/08/16 20:03:31;;;;;;;29.17;10.32;;;;;;;22.52;89.16;100415.69;2084456;28;20037;-68
2022/08/16 20:04:34;;;;;;;21.50;9.63;;;;;;;22.55;88.95;100414.19;2087379;28;20036;-66
2022/08/16 20:05:42;;;;;;;18.52;8.80;;;;;;;22.59;88.77;100415.03;2093469;28;20047;-66
2022/08/16 20:06:47;;;;;;;19.65;9.18;;;;;;;22.60;88.58;100417.41;2101019;28;20059;-67
2022/08/16 20:07:52;;;;;;;20.65;9.77;;;;;;;22.63;88.34;100405.72;2100041;28;20036;-65
2022/08/16 20:08:54;;;;;;;21.48;11.18;;;;;;;22.68;88.70;100412.84;2081958;28;20504;-67
2022/08/16 20:09:57;;;;;;;25.95;14.13;;;;;;;22.69;89.31;100417.16;2068169;28;20045;-67
2022/08/16 20:11:02;;;;;;;29.90;16.98;;;;;;;22.73;89.61;100409.00;2087286;28;20041;-67
2022/08/16 20:12:30;;;;;;;26.08;12.02;;;;;;;22.76;90.11;100416.50;2096212;28;20044;-68
2022/08/16 20:13:37;;;;;;;20.58;10.85;;;;;;;22.76;90.42;100411.84;2087510;28;20045;-66
2022/08/16 20:14:41;;;;;;;27.17;14.65;;;;;;;22.75;90.88;100415.72;2088591;28;20033;-67
2022/08/16 20:15:46;;;;;;;30.05;11.10;;;;;;;22.73;90.99;100418.03;2087310;28;20040;-66
2022/08/16 20:16:48;;;;;;;52.25;27.50;;;;;;;22.70;91.23;100410.53;2084387;28;20037;-67
2022/08/16 20:17:53;;;;;;;29.20;15.40;;;;;;;22.70;91.59;100418.78;2086691;28;20076;-67
2022/08/16 20:18:58;;;;;;;29.20;15.20;;;;;;;22.72;91.79;100412.91;2090504;28;20036;-66
2022/08/16 20:20:01;;;;;;;32.03;17.25;;;;;;;22.73;92.02;100425.44;2078724;28;20050;-67
2022/08/16 20:21:18;;;;;;;23.75;10.32;;;;;;;22.60;92.01;100433.03;2072186;28;20046;-67
2022/08/16 20:22:20;;;;;;;21.02;9.88;;;;;;;22.53;92.06;100427.44;2091658;28;20048;-67
2022/08/16 20:23:36;;;;;;;24.58;9.30;;;;;;;22.55;92.30;100430.63;2081705;28;20179;-67
2022/08/16 20:24:47;;;;;;;21.73;10.07;;;;;;;22.63;92.07;100426.84;2083622;28;20405;-67
2022/08/16 20:25:57;;;;;;;21.77;11.68;;;;;;;22.64;92.27;100431.19;2080144;28;20049;-66
2022/08/16 20:27:03;;;;;;;14.90;9.35;;;;;;;22.55;92.38;100431.41;2078462;28;20112;-66
2022/08/16 20:28:06;;;;;;;29.63;10.07;;;;;;;22.53;92.42;100432.91;2063797;28;20046;-67
2022/08/16 20:29:12;;;;;;;19.48;10.35;;;;;;;22.56;92.28;100430.25;2062832;28;20046;-66
2022/08/16 20:30:19;;;;;;;19.40;10.25;;;;;;;22.58;92.20;100424.41;2074179;28;20784;-66
2022/08/16 20:31:23;;;;;;;18.05;9.43;;;;;;;22.55;92.29;100431.41;2079575;28;20117;-66
2022/08/16 20:32:29;;;;;;;21.02;9.73;;;;;;;22.55;92.28;100423.19;2078790;28;20048;-67
2022/08/16 20:33:36;;;;;;;20.33;9.40;;;;;;;22.58;92.14;100427.16;2084131;28;20079;-67
2022/08/16 20:34:42;;;;;;;24.15;10.25;;;;;;;22.56;91.91;100426.72;2085637;28;20037;-66
2022/08/16 20:35:50;;;;;;;19.70;9.70;;;;;;;22.55;91.77;100430.63;2079869;28;20641;-68
2022/08/16 20:36:54;;;;;;;18.58;9.30;;;;;;;22.47;91.71;100435.16;2079008;28;20698;-67
2022/08/16 20:38:00;;;;;;;19.55;10.43;;;;;;;22.49;91.84;100430.13;2078567;28;20053;-67
2022/08/16 20:39:12;;;;;;;15.30;9.90;;;;;;;22.47;91.76;100428.88;2086023;28;20049;-67
2022/08/16 20:40:18;;;;;;;17.98;9.00;;;;;;;22.48;91.71;100431.28;2075458;28;20033;-67
2022/08/16 20:41:23;;;;;;;16.05;9.77;;;;;;;22.46;91.85;100441.00;2086911;28;20099;-67
2022/08/16 20:42:28;;;;;;;20.70;9.70;;;;;;;22.42;91.90;100443.69;2089840;28;20037;-67
2022/08/16 20:43:32;;;;;;;22.17;10.48;;;;;;;22.41;92.04;100442.06;2085570;28;20033;-67
2022/08/16 20:44:37;;;;;;;19.20;9.90;;;;;;;22.40;92.23;100446.75;2079451;28;20036;-68
2022/08/16 20:45:43;;;;;;;16.52;10.10;;;;;;;22.38;92.42;100448.28;2087445;28;20037;-67
2022/08/16 20:46:49;;;;;;;24.42;10.27;;;;;;;22.38;92.79;100454.56;2086619;28;20045;-66
2022/08/16 20:47:50;;;;;;;17.58;9.73;;;;;;;22.39;92.99;100450.66;2078656;28;20044;-69
2022/08/16 20:48:55;;;;;;;18.48;9.32;;;;;;;22.42;93.12;100455.44;2078855;28;20048;-67
2022/08/16 20:49:58;;;;;;;25.45;11.15;;;;;;;22.45;93.09;100448.44;2079371;28;20041;-66
2022/08/16 20:51:14;;;;;;;21.90;10.25;;;;;;;22.46;93.16;100449.22;2084648;28;20539;-67
2022/08/16 20:52:21;;;;;;;19.83;9.70;;;;;;;22.45;93.16;100448.44;2102872;28;20135;-66
2022/08/16 20:53:24;;;;;;;22.08;9.98;;;;;;;22.41;93.31;100462.06;2090193;28;20038;-66
2022/08/16 20:54:34;;;;;;;17.40;9.75;;;;;;;22.41;93.59;100461.25;2082905;28;20045;-67
2022/08/16 20:55:43;;;;;;;20.42;12.32;;;;;;;22.39;93.45;100456.16;2093241;28;20036;-67
2022/08/16 20:56:44;;;;;;;23.92;12.30;;;;;;;22.40;93.39;100468.69;2093632;28;20059;-66
2022/08/16 20:57:49;;;;;;;26.40;15.15;;;;;;;22.37;93.63;100463.94;2086349;28;20771;-67
2022/08/16 20:58:52;;;;;;;27.73;16.45;;;;;;;22.41;93.63;100464.81;2065415;28;20049;-69
2022/08/16 20:59:57;;;;;;;32.60;16.80;;;;;;;22.43;93.66;100473.44;2070600;28;20038;-65
2022/08/16 21:01:01;;;;;;;22.63;11.90;;;;;;;22.38;93.90;100471.00;2095330;28;20044;-68
2022/08/16 21:02:07;;;;;;;23.70;11.15;;;;;;;22.44;93.85;100475.00;2083727;28;20044;-66
2022/08/16 21:03:11;;;;;;;17.75;11.20;;;;;;;22.48;94.00;100474.28;2087164;28;20045;-65
2022/08/16 21:04:14;;;;;;;22.15;11.63;;;;;;;22.49;93.78;100475.91;2079164;28;20045;-67
2022/08/16 21:05:22;;;;;;;22.23;10.98;;;;;;;22.40;93.73;100478.84;2074279;28;20045;-66
2022/08/16 21:06:26;;;;;;;21.48;10.48;;;;;;;22.40;93.78;100476.91;2086810;28;20154;-65
2022/08/16 21:07:31;;;;;;;20.60;10.77;;;;;;;22.42;93.76;100477.34;2079516;28;20036;-67
2022/08/16 21:08:34;;;;;;;19.20;9.38;;;;;;;22.42;93.76;100474.59;2087359;28;20037;-66
2022/08/16 21:09:36;;;;;;;18.08;9.88;;;;;;;22.35;93.72;100471.72;2078196;28;20034;-67
2022/08/16 21:10:43;;;;;;;15.77;9.80;;;;;;;22.33;93.55;100471.28;2079055;28;20049;-67
2022/08/16 21:11:46;;;;;;;15.30;9.02;;;;;;;22.28;93.58;100473.50;2086265;28;20033;-67
2022/08/16 21:12:53;;;;;;;14.43;8.98;;;;;;;22.19;93.70;100468.25;2083958;28;20080;-66
2022/08/16 21:13:58;;;;;;;16.92;9.68;;;;;;;22.19;93.87;100470.97;2079539;28;20056;-66
2022/08/16 21:15:06;;;;;;;14.18;9.10;;;;;;;22.23;93.89;100471.06;2079094;28;20053;-65
2022/08/16 21:16:11;;;;;;;19.35;8.82;;;;;;;22.21;93.62;100471.41;2086180;28;20063;-65
2022/08/16 21:17:14;;;;;;;17.30;9.32;;;;;;;22.19;93.38;100468.25;2078605;28;20768;-66
2022/08/16 21:18:17;;;;;;;18.10;9.30;;;;;;;22.18;93.28;100469.41;2078611;28;20512;-66
2022/08/16 21:19:24;;;;;;;14.88;8.80;;;;;;;22.17;93.03;100468.59;2087580;28;20048;-66
2022/08/16 21:20:28;;;;;;;15.45;9.20;;;;;;;22.14;92.86;100472.03;2085634;28;20060;-67
2022/08/16 21:21:35;;;;;;;15.90;9.13;;;;;;;22.18;92.87;100466.66;2079339;28;20053;-67
2022/08/16 21:22:38;;;;;;;16.38;9.35;;;;;;;22.26;92.95;100473.88;2087380;28;20032;-67
2022/08/16 21:23:40;;;;;;;15.43;9.15;;;;;;;22.27;92.95;100472.72;2075933;28;20036;-67
2022/08/16 21:24:47;;;;;;;12.65;8.55;;;;;;;22.24;93.16;100475.38;2085163;28;20519;-65
2022/08/16 21:25:50;;;;;;;17.15;9.30;;;;;;;22.24;93.02;100476.19;2085520;28;20056;-65
2022/08/16 21:26:52;;;;;;;17.98;9.05;;;;;;;22.26;93.04;100473.88;2084140;28;20059;-67
2022/08/16 21:27:57;;;;;;;15.40;8.68;;;;;;;22.20;92.70;100473.38;2063692;28;20510;-67
2022/08/16 21:29:02;;;;;;;14.10;9.10;;;;;;;22.20;92.29;100473.38;2086921;28;20043;-67
2022/08/16 21:30:08;;;;;;;14.52;8.30;;;;;;;22.11;92.17;100480.97;2099067;28;20543;-67
2022/08/16 21:31:11;;;;;;;15.85;9.27;;;;;;;22.09;92.02;100475.03;2094031;28;20766;-67
2022/08/16 21:32:24;;;;;;;13.23;9.05;;;;;;;22.06;92.06;100469.50;2080702;28;20049;-67
2022/08/16 21:33:27;;;;;;;12.32;7.95;;;;;;;22.04;92.13;100471.81;2086816;28;20037;-67
2022/08/16 21:34:33;;;;;;;14.73;9.55;;;;;;;21.98;92.22;100465.81;2080829;28;20033;-67
2022/08/16 21:35:35;;;;;;;14.43;8.65;;;;;;;22.00;92.45;100466.25;2083627;28;20033;-67
2022/08/16 21:36:38;;;;;;;16.75;9.07;;;;;;;22.02;92.29;100466.69;2086668;28;20608;-67
2022/08/16 21:37:41;;;;;;;13.43;9.25;;;;;;;21.99;92.38;100470.13;2085758;28;20040;-67
2022/08/16 21:38:47;;;;;;;16.83;9.20;;;;;;;22.03;92.10;100470.22;2078947;28;20062;-66
2022/08/16 21:39:48;;;;;;;13.00;8.93;;;;;;;22.03;92.16;100473.75;2078521;28;20049;-67
2022/08/16 21:40:56;;;;;;;14.48;8.90;;;;;;;22.03;91.78;100472.94;2078074;28;20112;-66
2022/08/16 21:42:07;;;;;;;13.75;8.80;;;;;;;22.02;91.88;100465.91;2074291;28;20052;-67
2022/08/16 21:43:13;;;;;;;12.82;8.93;;;;;;;21.99;91.48;100462.72;2077549;28;20416;-66
2022/08/16 21:44:16;;;;;;;15.27;8.85;;;;;;;21.98;91.21;100463.88;2084540;28;20045;-67
2022/08/16 21:45:22;;;;;;;17.00;9.00;;;;;;;21.98;91.00;100463.88;2094614;28;20054;-67
2022/08/16 21:46:27;;;;;;;12.57;8.68;;;;;;;21.99;90.99;100465.44;2093665;28;20074;-67
2022/08/16 21:47:31;;;;;;;15.35;9.38;;;;;;;22.02;91.10;100463.16;2085976;28;20037;-67
2022/08/16 21:48:40;;;;;;;16.05;9.05;;;;;;;22.06;91.01;100462.06;2079167;28;20037;-67
2022/08/16 21:49:43;;;;;;;16.90;8.70;;;;;;;22.11;91.31;100463.75;2086628;28;20032;-67
2022/08/16 21:50:47;;;;;;;15.65;8.80;;;;;;;22.11;91.47;100467.28;2084158;28;20035;-67
2022/08/16 21:51:50;;;;;;;14.43;8.82;;;;;;;22.14;91.63;100463.81;2085964;28;20771;-67
2022/08/16 21:53:11;;;;;;;12.90;9.20;;;;;;;22.16;91.71;100464.28;2095203;28;20047;-67
2022/08/16 21:54:17;;;;;;;12.88;8.73;;;;;;;22.17;91.68;100465.09;2080270;28;20072;-67
2022/08/16 21:55:21;;;;;;;13.43;9.13;;;;;;;22.09;91.74;100463.31;2082157;28;20036;-67
2022/08/16 21:56:28;;;;;;;14.95;8.82;;;;;;;22.07;91.81;100466.41;2082514;28;20377;-68
2022/08/16 21:57:58;;;;;;;10.85;7.75;;;;;;;22.02;91.38;100463.16;2078755;28;20405;-65
2022/08/16 21:58:59;;;;;;;13.93;8.98;;;;;;;22.02;91.19;100466.69;2089051;28;20056;-66
2022/08/16 22:00:05;;;;;;;13.40;9.38;;;;;;;21.99;91.40;100465.44;2086454;28;20111;-67
2022/08/16 22:01:11;;;;;;;13.95;9.20;;;;;;;22.03;91.59;100459.25;2078853;28;20496;-67
2022/08/16 22:02:19;;;;;;;13.98;8.82;;;;;;;22.08;91.71;100467.19;2084193;28;20749;-66
2022/08/16 22:03:24;;;;;;;16.63;10.02;;;;;;;22.06;91.91;100458.53;2094644;28;20033;-66
2022/08/16 22:04:28;;;;;;;15.20;9.45;;;;;;;22.06;92.09;100458.53;2093431;28;20044;-66
2022/08/16 22:05:34;;;;;;;17.38;9.45;;;;;;;22.05;92.26;100456.97;2078015;28;20424;-67
2022/08/16 22:06:42;;;;;;;16.75;9.00;;;;;;;22.08;92.02;100461.72;2079192;28;20561;-67
2022/08/16 22:07:44;;;;;;;14.60;8.88;;;;;;;22.09;92.01;100461.34;2077876;28;20112;-67
2022/08/16 22:08:50;;;;;;;16.70;8.85;;;;;;;22.10;92.21;100460.22;2072807;28;20690;-67
2022/08/16 22:09:54;;;;;;;15.02;9.15;;;;;;;22.10;91.99;100462.16;2078524;28;20048;-67
2022/08/16 22:11:00;;;;;;;12.82;9.30;;;;;;;22.08;92.12;100464.47;2079203;28;20033;-67
2022/08/16 22:12:06;;;;;;;11.80;8.27;;;;;;;22.02;91.98;100461.22;2088507;28;20048;-67
2022/08/16 22:13:23;;;;;;;13.07;9.35;;;;;;;21.96;92.20;100466.16;2078828;28;20445;-66
2022/08/16 22:14:29;;;;;;;12.43;8.75;;;;;;;21.98;92.16;100461.13;2084767;28;20052;-66
2022/08/16 22:15:33;;;;;;;13.93;9.07;;;;;;;21.98;92.13;100463.88;2070151;28;20051;-66
2022/08/16 22:16:37;;;;;;;13.68;8.32;;;;;;;21.98;92.21;100463.09;2064592;28;20040;-66
2022/08/16 22:17:42;;;;;;;15.88;9.05;;;;;;;21.95;92.16;100470.06;2079972;28;20033;-66
2022/08/16 22:18:46;;;;;;;15.43;8.73;;;;;;;21.97;92.04;100465.03;2087001;28;20049;-66
2022/08/16 22:19:54;;;;;;;12.20;8.80;;;;;;;21.95;92.00;100459.13;2081889;28;20045;-66
2022/08/16 22:21:04;;;;;;;13.75;8.65;;;;;;;21.93;91.90;100457.88;2092853;28;20040;-67
2022/08/16 22:22:06;;;;;;;15.90;9.30;;;;;;;21.88;91.96;100458.97;2086510;28;20678;-66
2022/08/16 22:23:15;;;;;;;14.48;9.23;;;;;;;21.85;91.81;100454.22;2086079;28;20032;-66
2022/08/16 22:24:20;;;;;;;13.52;9.13;;;;;;;21.87;91.77;100462.84;2075554;28;20048;-67
2022/08/16 22:25:24;;;;;;;16.85;9.20;;;;;;;21.90;91.77;100461.34;2080345;28;20033;-66
2022/08/16 22:26:31;;;;;;;13.23;8.80;;;;;;;21.88;91.71;100458.97;2083732;28;20040;-67
2022/08/16 22:27:39;;;;;;;15.00;9.00;;;;;;;21.88;91.67;100463.63;2072912;28;20041;-66
2022/08/16 22:28:44;;;;;;;13.18;9.25;;;;;;;21.85;91.60;100464.38;2079447;28;20033;-68
2022/08/16 22:29:49;;;;;;;16.45;9.65;;;;;;;21.80;91.66;100457.22;2085934;28;20698;-67
2022/08/16 22:30:52;;;;;;;14.95;9.02;;;;;;;21.81;91.56;100464.25;2084068;28;20037;-68
2022/08/16 22:31:57;;;;;;;14.70;8.85;;;;;;;21.83;91.70;100467.44;2076374;28;20045;-67
2022/08/16 22:32:59;;;;;;;14.70;9.77;;;;;;;21.84;91.56;100465.50;2075868;28;20045;-67
2022/08/16 22:34:05;;;;;;;14.07;9.55;;;;;;;21.78;91.85;100461.44;2078131;28;20124;-67
2022/08/16 22:35:13;;;;;;;15.85;9.68;;;;;;;21.73;91.70;100462.53;2070323;28;20046;-67
2022/08/16 22:36:18;;;;;;;13.93;9.50;;;;;;;21.74;91.90;100461.38;2071415;28;20060;-67
2022/08/16 22:37:27;;;;;;;15.75;9.85;;;;;;;21.77;92.02;100463.41;2087438;28;20036;-67
2022/08/16 22:38:30;;;;;;;16.23;9.82;;;;;;;21.80;91.83;100456.41;2091071;28;20036;-67
2022/08/16 22:39:33;;;;;;;19.73;9.90;;;;;;;21.75;91.78;100462.94;2092955;28;20025;-67
2022/08/16 22:40:35;;;;;;;14.80;8.82;;;;;;;21.69;91.65;100453.41;2082713;28;20040;-67
2022/08/16 22:41:44;;;;;;;16.60;10.02;;;;;;;21.60;91.66;100458.31;2085861;28;20032;-67
2022/08/16 22:42:48;;;;;;;14.80;8.88;;;;;;;21.54;92.29;100452.31;2079213;28;20481;-67